createdAt,value
2023-04-08T00:01:18.700Z,100.00
2023-04-08T00:03:45.950Z,100.00
2023-04-08T00:06:12.852Z,100.00
2023-04-08T00:08:39.922Z,100.00
2023-04-08T00:11:06.716Z,100.00
2023-04-08T00:13:33.594Z,100.00
2023-04-08T00:16:00.351Z,100.00
2023-04-08T00:18:27.260Z,100.00
2023-04-08T00:20:54.105Z,100.00
2023-04-08T00:23:21.517Z,100.00
2023-04-08T00:25:48.398Z,100.00
2023-04-08T00:28:16.794Z,100.00
2023-04-08T00:30:43.721Z,100.00
2023-04-08T00:33:10.538Z,100.00
2023-04-08T00:35:37.316Z,100.00
2023-04-08T00:38:06.613Z,100.00
2023-04-08T00:40:33.698Z,100.00
2023-04-08T00:43:01.354Z,100.00
2023-04-08T00:45:27.968Z,100.00
2023-04-08T00:47:54.669Z,100.00
2023-04-08T00:50:25.581Z,100.00
2023-04-08T00:52:52.883Z,100.00
2023-04-08T00:55:19.546Z,100.00
2023-04-08T00:57:48.998Z,100.00
2023-04-08T01:00:16.477Z,100.00
2023-04-08T01:03:06.030Z,100.00
2023-04-08T01:05:49.457Z,100.00
2023-04-08T01:08:16.958Z,100.00
2023-04-08T01:10:45.776Z,100.00
2023-04-08T01:13:14.632Z,100.00
2023-04-08T01:15:42.671Z,100.00
2023-04-08T01:18:12.504Z,100.00
2023-04-08T01:20:42.678Z,100.00
2023-04-08T01:23:19.111Z,100.00
2023-04-08T01:25:49.859Z,100.00
2023-04-08T01:28:18.316Z,100.00
2023-04-08T01:30:47.286Z,100.00
2023-04-08T01:33:15.988Z,100.00
2023-04-08T01:35:42.918Z,100.00
2023-04-08T01:38:12.053Z,100.00
2023-04-08T01:40:39.244Z,100.00
2023-04-08T01:43:08.435Z,100.00
2023-04-08T01:45:35.067Z,100.00
2023-04-08T01:48:02.398Z,100.00
2023-04-08T01:50:30.025Z,100.00
2023-04-08T01:52:59.385Z,100.00
2023-04-08T01:55:27.081Z,100.00
2023-04-08T01:57:54.500Z,100.00
2023-04-08T02:00:24.120Z,100.00
2023-04-08T02:02:51.274Z,100.00
2023-04-08T02:05:18.248Z,100.00
2023-04-08T02:07:46.750Z,100.00
2023-04-08T02:10:13.458Z,100.00
2023-04-08T02:12:40.188Z,100.00
2023-04-08T02:15:07.304Z,100.00
2023-04-08T02:17:38.448Z,100.00
2023-04-08T02:20:16.825Z,100.00
2023-04-08T02:22:52.659Z,100.00
2023-04-08T02:25:23.629Z,100.00
2023-04-08T02:27:50.954Z,100.00
2023-04-08T02:30:18.246Z,100.00
2023-04-08T02:32:46.436Z,100.00
2023-04-08T02:35:14.499Z,100.00
2023-04-08T02:37:41.269Z,100.00
2023-04-08T02:40:31.261Z,100.00
2023-04-08T02:42:58.719Z,100.00
2023-04-08T02:45:31.993Z,100.00
2023-04-08T02:48:02.234Z,100.00
2023-04-08T02:50:29.257Z,100.00
2023-04-08T02:52:56.140Z,100.00
2023-04-08T02:55:22.795Z,100.00
2023-04-08T02:57:49.623Z,100.00
2023-04-08T03:00:16.837Z,100.00
2023-04-08T03:02:43.570Z,100.00
2023-04-08T03:05:10.487Z,100.00
2023-04-08T03:07:37.383Z,100.00
2023-04-08T03:10:04.425Z,100.00
2023-04-08T03:12:31.476Z,100.00
2023-04-08T03:14:58.125Z,100.00
2023-04-08T03:17:24.791Z,100.00
2023-04-08T03:19:51.485Z,100.00
2023-04-08T03:22:18.136Z,100.00
2023-04-08T03:24:44.771Z,100.00
2023-04-08T03:27:12.641Z,100.00
2023-04-08T03:29:39.263Z,100.00
2023-04-08T03:32:06.300Z,100.00
2023-04-08T03:34:34.655Z,100.00
2023-04-08T03:37:01.769Z,100.00
2023-04-08T03:39:28.573Z,100.00
2023-04-08T03:41:55.318Z,100.00
2023-04-08T03:44:21.922Z,100.00
2023-04-08T03:46:51.658Z,100.00
2023-04-08T03:49:18.344Z,100.00
2023-04-08T03:51:44.986Z,100.00
2023-04-08T03:54:13.315Z,100.00
2023-04-08T03:56:40.483Z,100.00
2023-04-08T03:59:07.263Z,100.00
2023-04-08T04:01:34.282Z,100.00
2023-04-08T04:04:01.165Z,100.00
2023-04-08T04:06:28.158Z,100.00
2023-04-08T04:08:57.764Z,100.00
2023-04-08T04:11:24.524Z,100.00
2023-04-08T04:13:51.470Z,100.00
2023-04-08T04:16:18.250Z,100.00
2023-04-08T04:18:44.944Z,100.00
2023-04-08T04:21:11.631Z,100.00
2023-04-08T04:23:38.564Z,100.00
2023-04-08T04:26:09.960Z,100.00
2023-04-08T04:28:36.705Z,100.00
2023-04-08T04:31:04.958Z,100.00
2023-04-08T04:33:31.797Z,100.00
2023-04-08T04:35:58.486Z,100.00
2023-04-08T04:38:25.165Z,100.00
2023-04-08T04:40:51.880Z,100.00
2023-04-08T04:43:18.483Z,100.00
2023-04-08T04:45:45.252Z,100.00
2023-04-08T04:48:12.468Z,100.00
2023-04-08T04:50:39.055Z,100.00
2023-04-08T04:53:05.825Z,100.00
2023-04-08T04:55:32.645Z,100.00
2023-04-08T04:57:59.384Z,100.00
2023-04-08T05:00:26.035Z,100.00
2023-04-08T05:02:53.296Z,100.00
2023-04-08T05:05:20.770Z,100.00
2023-04-08T05:07:47.477Z,100.00
2023-04-08T05:10:14.109Z,100.00
2023-04-08T05:12:41.416Z,100.00
2023-04-08T05:15:08.166Z,100.00
2023-04-08T05:17:34.925Z,100.00
2023-04-08T05:20:02.623Z,100.00
2023-04-08T05:22:29.236Z,100.00
2023-04-08T05:24:56.048Z,100.00
2023-04-08T05:27:22.727Z,100.00
2023-04-08T05:29:49.360Z,100.00
2023-04-08T05:32:17.092Z,100.00
2023-04-08T05:34:44.070Z,100.00
2023-04-08T05:37:11.008Z,100.00
2023-04-08T05:39:37.767Z,100.00
2023-04-08T05:42:04.410Z,100.00
2023-04-08T05:44:31.215Z,100.00
2023-04-08T05:46:58.330Z,100.00
2023-04-08T05:49:25.027Z,100.00
2023-04-08T05:51:51.730Z,100.00
2023-04-08T05:54:18.375Z,100.00
2023-04-08T05:56:46.385Z,100.00
2023-04-08T05:59:13.145Z,100.00
2023-04-08T06:01:39.966Z,100.00
2023-04-08T06:04:07.007Z,100.00
2023-04-08T06:06:34.048Z,100.00
2023-04-08T06:09:00.770Z,100.00
2023-04-08T06:11:28.192Z,100.00
2023-04-08T06:13:54.961Z,100.00
2023-04-08T06:16:21.649Z,100.00
2023-04-08T06:18:49.237Z,100.00
2023-04-08T06:21:16.166Z,100.00
2023-04-08T06:23:42.889Z,100.00
2023-04-08T06:26:09.578Z,100.00
2023-04-08T06:28:36.350Z,100.00
2023-04-08T06:31:03.016Z,100.00
2023-04-08T06:33:29.698Z,100.00
2023-04-08T06:36:07.242Z,100.00
2023-04-08T06:38:34.466Z,100.00
2023-04-08T06:41:08.522Z,100.00
2023-04-08T06:43:36.543Z,100.00
2023-04-08T06:46:03.621Z,100.00
2023-04-08T06:48:30.996Z,100.00
2023-04-08T06:50:59.029Z,100.00
2023-04-08T06:53:26.992Z,100.00
2023-04-08T06:55:53.639Z,100.00
2023-04-08T06:58:23.231Z,100.00
2023-04-08T07:00:50.025Z,100.00
2023-04-08T07:03:16.925Z,100.00
2023-04-08T07:05:47.531Z,100.00
2023-04-08T07:08:14.422Z,100.00
2023-04-08T07:10:41.988Z,100.00
2023-04-08T07:13:08.829Z,100.00
2023-04-08T07:15:35.547Z,100.00
2023-04-08T07:18:02.922Z,100.00
2023-04-08T07:20:31.623Z,100.00
2023-04-08T07:22:58.871Z,100.00
2023-04-08T07:25:25.743Z,100.00
2023-04-08T07:27:52.976Z,100.00
2023-04-08T07:30:19.822Z,100.00
2023-04-08T07:32:46.515Z,100.00
2023-04-08T07:35:13.382Z,100.00
2023-04-08T07:37:40.172Z,100.00
2023-04-08T07:40:08.442Z,100.00
2023-04-08T07:42:35.570Z,100.00
2023-04-08T07:45:03.629Z,100.00
2023-04-08T07:47:30.388Z,100.00
2023-04-08T07:49:57.154Z,100.00
2023-04-08T07:52:23.813Z,100.00
2023-04-08T07:54:50.745Z,100.00
2023-04-08T07:57:17.704Z,100.00
2023-04-08T07:59:44.691Z,100.00
2023-04-08T08:02:11.796Z,100.00
2023-04-08T08:04:38.629Z,100.00
2023-04-08T08:07:05.872Z,100.00
2023-04-08T08:09:32.569Z,100.00
2023-04-08T08:11:59.201Z,100.00
2023-04-08T08:14:26.854Z,100.00
2023-04-08T08:16:54.357Z,100.00
2023-04-08T08:19:21.382Z,100.00
2023-04-08T08:21:48.260Z,100.00
2023-04-08T08:24:14.989Z,100.00
2023-04-08T08:26:41.848Z,100.00
2023-04-08T08:29:09.014Z,100.00
2023-04-08T08:31:35.856Z,100.00
2023-04-08T08:34:02.937Z,100.00
2023-04-08T08:36:29.684Z,100.00
2023-04-08T08:38:56.434Z,100.00
2023-04-08T08:41:23.243Z,100.00
2023-04-08T08:43:50.468Z,100.00
2023-04-08T08:46:19.121Z,100.00
2023-04-08T08:48:46.357Z,100.00
2023-04-08T08:51:13.639Z,100.00
2023-04-08T08:53:45.129Z,100.00
2023-04-08T08:58:42.034Z,100.00
2023-04-08T09:01:31.237Z,100.00
2023-04-08T09:04:17.263Z,100.00
2023-04-08T09:06:45.444Z,100.00
2023-04-08T09:09:12.309Z,100.00
2023-04-08T09:11:40.914Z,100.00
2023-04-08T09:14:24.786Z,100.00
2023-04-08T09:16:52.363Z,100.00
2023-04-08T09:19:19.195Z,100.00
2023-04-08T09:21:46.039Z,100.00
2023-04-08T09:24:28.923Z,100.00
2023-04-08T09:26:56.591Z,100.00
2023-04-08T09:29:27.628Z,100.00
2023-04-08T09:31:56.786Z,100.00
2023-04-08T09:34:24.018Z,100.00
2023-04-08T09:36:51.500Z,100.00
2023-04-08T09:39:18.226Z,100.00
2023-04-08T09:41:48.587Z,100.00
2023-04-08T09:44:20.058Z,100.00
2023-04-08T09:46:49.559Z,100.00
2023-04-08T09:49:39.126Z,100.00
2023-04-08T09:52:15.788Z,100.00
2023-04-08T09:54:51.923Z,100.00
2023-04-08T09:57:29.040Z,100.00
2023-04-08T10:00:05.836Z,100.00
2023-04-08T10:02:36.624Z,100.00
2023-04-08T10:05:04.960Z,100.00
2023-04-08T10:07:33.015Z,100.00
2023-04-08T10:09:59.710Z,100.00
2023-04-08T10:12:26.559Z,100.00
2023-04-08T10:15:23.746Z,100.00
2023-04-08T10:17:51.313Z,100.00
2023-04-08T10:20:36.445Z,100.00
2023-04-08T10:23:04.290Z,100.00
2023-04-08T10:25:32.757Z,100.00
2023-04-08T10:28:11.832Z,100.00
2023-04-08T10:30:38.488Z,100.00
2023-04-08T10:33:11.292Z,100.00
2023-04-08T10:36:04.654Z,100.00
2023-04-08T10:38:32.124Z,100.00
2023-04-08T10:41:02.648Z,100.00
2023-04-08T10:43:33.879Z,100.00
2023-04-08T10:46:00.681Z,100.00
2023-04-08T10:48:29.208Z,100.00
2023-04-08T10:51:00.443Z,100.00
2023-04-08T10:53:36.063Z,100.00
2023-04-08T10:56:17.730Z,100.00
2023-04-08T10:58:59.078Z,100.00
2023-04-08T11:01:30.322Z,100.00
2023-04-08T11:03:58.961Z,100.00
2023-04-08T11:06:30.920Z,100.00
2023-04-08T11:09:00.150Z,100.00
2023-04-08T11:11:29.687Z,100.00
2023-04-08T11:13:57.383Z,100.00
2023-04-08T11:16:24.332Z,100.00
2023-04-08T11:18:51.083Z,100.00
2023-04-08T11:21:20.409Z,100.00
2023-04-08T11:23:50.174Z,100.00
2023-04-08T11:26:17.277Z,100.00
2023-04-08T11:28:45.486Z,100.00
2023-04-08T11:31:13.237Z,100.00
2023-04-08T11:33:45.917Z,100.00
2023-04-08T11:36:12.623Z,100.00
2023-04-08T11:38:41.383Z,100.00
2023-04-08T11:41:12.161Z,100.00
2023-04-08T11:43:41.055Z,100.00
2023-04-08T11:46:11.565Z,100.00
2023-04-08T11:48:39.280Z,100.00
2023-04-08T11:51:09.786Z,100.00
2023-04-08T11:53:37.836Z,100.00
2023-04-08T11:56:21.308Z,100.00
2023-04-08T11:58:49.282Z,100.00
2023-04-08T12:01:16.328Z,100.00
2023-04-08T12:03:54.586Z,100.00
2023-04-08T12:06:21.401Z,100.00
2023-04-08T12:08:48.118Z,100.00
2023-04-08T12:11:20.085Z,100.00
2023-04-08T12:13:47.173Z,100.00
2023-04-08T12:16:14.330Z,100.00
2023-04-08T12:18:41.680Z,100.00
2023-04-08T12:21:08.563Z,100.00
2023-04-08T12:23:35.484Z,100.00
2023-04-08T12:26:03.829Z,100.00
2023-04-08T12:28:30.466Z,100.00
2023-04-08T12:30:57.202Z,97.39
2023-04-08T12:33:23.820Z,100.00
2023-04-08T12:35:50.577Z,97.91
2023-04-08T12:38:17.656Z,98.52
2023-04-08T12:40:44.270Z,90.03
2023-04-08T12:43:11.226Z,95.73
2023-04-08T12:45:38.037Z,96.15
2023-04-08T12:48:05.130Z,94.33
2023-04-08T12:50:31.755Z,95.30
2023-04-08T12:52:58.428Z,88.43
2023-04-08T12:55:25.263Z,93.74
2023-04-08T12:57:52.417Z,94.21
2023-04-08T13:00:19.567Z,92.67
2023-04-08T13:02:46.775Z,91.53
2023-04-08T13:05:13.547Z,93.39
2023-04-08T13:07:40.514Z,92.88
2023-04-08T13:10:08.503Z,93.99
2023-04-08T13:12:35.141Z,91.47
2023-04-08T13:15:02.029Z,93.28
2023-04-08T13:17:29.064Z,95.45
2023-04-08T13:19:55.822Z,89.14
2023-04-08T13:22:24.157Z,89.03
2023-04-08T13:24:51.334Z,85.67
2023-04-08T13:27:18.057Z,85.08
2023-04-08T13:29:45.712Z,85.12
2023-04-08T13:32:12.510Z,82.38
2023-04-08T13:34:39.448Z,86.58
2023-04-08T13:37:06.147Z,83.96
2023-04-08T13:39:33.526Z,89.91
2023-04-08T13:42:00.242Z,90.98
2023-04-08T13:44:27.249Z,88.27
2023-04-08T13:46:54.035Z,92.78
2023-04-08T13:49:20.641Z,94.65
2023-04-08T13:51:47.245Z,90.74
2023-04-08T13:54:13.909Z,90.83
2023-04-08T13:56:40.532Z,86.05
2023-04-08T13:59:07.460Z,86.85
2023-04-08T14:01:34.245Z,85.80
2023-04-08T14:04:01.107Z,88.01
2023-04-08T14:06:27.798Z,89.34
2023-04-08T14:08:54.648Z,88.69
2023-04-08T14:11:21.385Z,86.74
2023-04-08T14:13:49.209Z,87.14
2023-04-08T14:16:16.744Z,87.24
2023-04-08T14:18:43.375Z,89.31
2023-04-08T14:21:10.086Z,85.03
2023-04-08T14:23:36.793Z,88.53
2023-04-08T14:26:03.576Z,87.61
2023-04-08T14:28:33.107Z,83.23
2023-04-08T14:30:59.758Z,82.86
2023-04-08T14:33:27.276Z,88.72
2023-04-08T14:35:57.320Z,89.81
2023-04-08T14:38:23.975Z,90.71
2023-04-08T14:40:50.741Z,90.64
2023-04-08T14:43:17.510Z,84.28
2023-04-08T14:45:45.044Z,86.17
2023-04-08T14:48:11.927Z,85.23
2023-04-08T14:50:38.639Z,84.68
2023-04-08T14:53:05.406Z,88.22
2023-04-08T14:55:32.358Z,89.80
2023-04-08T14:58:00.926Z,89.28
2023-04-08T15:00:27.856Z,89.13
2023-04-08T15:02:54.673Z,84.29
2023-04-08T15:05:21.498Z,86.73
2023-04-08T15:07:48.521Z,88.06
2023-04-08T15:10:15.193Z,91.44
2023-04-08T15:12:41.918Z,92.36
2023-04-08T15:15:08.937Z,91.77
2023-04-08T15:17:35.705Z,87.90
2023-04-08T15:20:02.430Z,90.85
2023-04-08T15:22:29.069Z,91.92
2023-04-08T15:24:55.927Z,94.56
2023-04-08T15:27:22.840Z,95.61
2023-04-08T15:29:49.950Z,95.68
2023-04-08T15:32:21.495Z,95.29
2023-04-08T15:34:48.445Z,94.14
2023-04-08T15:37:15.705Z,95.03
2023-04-08T15:39:42.530Z,93.94
2023-04-08T15:42:09.125Z,97.41
2023-04-08T15:44:36.155Z,95.62
2023-04-08T15:47:03.058Z,94.74
2023-04-08T15:49:30.001Z,95.85
2023-04-08T15:51:56.745Z,97.54
2023-04-08T15:54:23.363Z,97.24
2023-04-08T15:56:50.039Z,98.01
2023-04-08T15:59:16.984Z,98.09
2023-04-08T16:01:44.169Z,98.85
2023-04-08T16:04:11.213Z,98.56
2023-04-08T16:06:38.415Z,99.41
2023-04-08T16:09:05.402Z,100.00
2023-04-08T16:11:34.008Z,100.00
2023-04-08T16:14:00.831Z,100.00
2023-04-08T16:16:27.556Z,100.00
2023-04-08T16:18:56.205Z,100.00
2023-04-08T16:21:23.001Z,100.00
2023-04-08T16:23:49.893Z,100.00
2023-04-08T16:26:17.147Z,100.00
2023-04-08T16:28:43.883Z,100.00
2023-04-08T16:31:10.726Z,100.00
2023-04-08T16:33:37.444Z,100.00
2023-04-08T16:36:04.432Z,100.00
2023-04-08T16:38:31.088Z,100.00
2023-04-08T16:41:01.131Z,100.00
2023-04-08T16:43:28.150Z,100.00
2023-04-08T16:45:54.773Z,100.00
2023-04-08T16:48:21.387Z,100.00
2023-04-08T16:50:48.022Z,100.00
2023-04-08T16:53:14.860Z,100.00
2023-04-08T16:55:41.567Z,100.00
2023-04-08T16:58:08.427Z,100.00
2023-04-08T17:00:35.161Z,100.00
2023-04-08T17:03:02.442Z,100.00
2023-04-08T17:05:29.477Z,100.00
2023-04-08T17:07:59.088Z,100.00
2023-04-08T17:10:25.778Z,100.00
2023-04-08T17:12:52.508Z,100.00
2023-04-08T17:15:19.321Z,100.00
2023-04-08T17:17:46.596Z,100.00
2023-04-08T17:20:13.519Z,100.00
2023-04-08T17:22:40.228Z,100.00
2023-04-08T17:25:08.078Z,100.00
2023-04-08T17:27:35.038Z,100.00
2023-04-08T17:30:01.863Z,100.00
2023-04-08T17:32:28.538Z,100.00
2023-04-08T17:34:55.668Z,100.00
2023-04-08T17:37:22.372Z,100.00
2023-04-08T17:39:49.024Z,100.00
2023-04-08T17:42:16.891Z,100.00
2023-04-08T17:44:44.853Z,100.00
2023-04-08T17:47:11.500Z,100.00
2023-04-08T17:49:38.238Z,100.00
2023-04-08T17:52:06.015Z,100.00
2023-04-08T17:54:34.499Z,100.00
2023-04-08T17:57:01.579Z,100.00
2023-04-08T17:59:28.293Z,100.00
2023-04-08T18:01:55.151Z,100.00
2023-04-08T18:04:22.854Z,100.00
2023-04-08T18:06:49.595Z,100.00
2023-04-08T18:09:16.232Z,100.00
2023-04-08T18:11:42.821Z,100.00
2023-04-08T18:14:09.783Z,100.00
2023-04-08T18:16:36.467Z,100.00
2023-04-08T18:19:03.310Z,100.00
2023-04-08T18:21:30.028Z,100.00
2023-04-08T18:23:56.631Z,100.00
2023-04-08T18:26:23.439Z,100.00
2023-04-08T18:28:50.283Z,100.00
2023-04-08T18:31:17.054Z,100.00
2023-04-08T18:33:43.807Z,100.00
2023-04-08T18:36:12.662Z,100.00
2023-04-08T18:38:40.917Z,100.00
2023-04-08T18:41:07.976Z,100.00
2023-04-08T18:43:34.717Z,100.00
2023-04-08T18:46:01.620Z,100.00
2023-04-08T18:48:28.636Z,100.00
2023-04-08T18:50:55.344Z,100.00
2023-04-08T18:53:22.618Z,100.00
2023-04-08T18:55:49.277Z,100.00
2023-04-08T18:58:15.934Z,100.00
2023-04-08T19:00:43.747Z,100.00
2023-04-08T19:03:10.786Z,100.00
2023-04-08T19:05:37.890Z,100.00
2023-04-08T19:08:04.848Z,100.00
2023-04-08T19:10:32.977Z,100.00
2023-04-08T19:12:59.969Z,100.00
2023-04-08T19:15:26.977Z,100.00
2023-04-08T19:17:54.225Z,100.00
2023-04-08T19:20:21.279Z,100.00
2023-04-08T19:22:49.201Z,100.00
2023-04-08T19:25:16.967Z,100.00
2023-04-08T19:27:45.777Z,100.00
2023-04-08T19:30:13.203Z,100.00
2023-04-08T19:32:42.851Z,100.00
2023-04-08T19:35:12.564Z,100.00
2023-04-08T19:37:39.302Z,100.00
2023-04-08T19:40:07.326Z,100.00
2023-04-08T19:42:34.156Z,100.00
2023-04-08T19:45:03.834Z,100.00
2023-04-08T19:47:30.541Z,100.00
2023-04-08T19:49:58.250Z,100.00
2023-04-08T19:52:25.393Z,100.00
2023-04-08T19:54:52.377Z,100.00
2023-04-08T19:57:19.891Z,100.00
2023-04-08T19:59:48.766Z,100.00
2023-04-08T20:02:21.808Z,100.00
2023-04-08T20:04:54.153Z,100.00
2023-04-08T20:07:25.299Z,100.00
2023-04-08T20:09:52.024Z,100.00
2023-04-08T20:12:18.792Z,100.00
2023-04-08T20:14:46.012Z,100.00
2023-04-08T20:17:12.912Z,100.00
2023-04-08T20:19:40.333Z,100.00
2023-04-08T20:22:07.155Z,100.00
2023-04-08T20:24:34.223Z,100.00
2023-04-08T20:27:01.498Z,100.00
2023-04-08T20:29:28.602Z,100.00
2023-04-08T20:31:55.337Z,100.00
2023-04-08T20:34:22.340Z,100.00
2023-04-08T20:36:49.055Z,100.00
2023-04-08T20:39:16.773Z,100.00
2023-04-08T20:41:43.535Z,100.00
2023-04-08T20:44:12.444Z,100.00
2023-04-08T20:46:39.719Z,100.00
2023-04-08T20:49:06.629Z,100.00
2023-04-08T20:51:40.025Z,100.00
2023-04-08T20:54:17.805Z,100.00
2023-04-08T20:56:54.125Z,100.00
2023-04-08T20:59:30.441Z,100.00
2023-04-08T21:02:03.175Z,100.00
2023-04-08T21:04:29.927Z,100.00
2023-04-08T21:06:56.778Z,100.00
2023-04-08T21:09:23.459Z,100.00
2023-04-08T21:11:50.157Z,100.00
2023-04-08T21:14:19.067Z,100.00
2023-04-08T21:16:46.202Z,100.00
2023-04-08T21:19:16.034Z,100.00
2023-04-08T21:21:45.451Z,100.00
2023-04-08T21:24:13.543Z,100.00
2023-04-08T21:26:40.442Z,100.00
2023-04-08T21:29:09.586Z,100.00
2023-04-08T21:31:38.017Z,100.00
2023-04-08T21:34:06.188Z,100.00
2023-04-08T21:36:33.675Z,100.00
2023-04-08T21:39:00.624Z,100.00
2023-04-08T21:41:30.205Z,100.00
2023-04-08T21:43:57.375Z,100.00
2023-04-08T21:46:24.155Z,100.00
2023-04-08T21:48:51.203Z,100.00
2023-04-08T21:51:18.485Z,100.00
2023-04-08T21:53:45.648Z,100.00
2023-04-08T21:56:13.987Z,100.00
2023-04-08T21:58:40.810Z,100.00
2023-04-08T22:01:07.872Z,100.00
2023-04-08T22:03:34.781Z,100.00
2023-04-08T22:06:08.783Z,100.00
2023-04-08T22:08:35.595Z,100.00
2023-04-08T22:11:09.538Z,100.00
2023-04-08T22:13:36.346Z,100.00
2023-04-08T22:16:03.129Z,100.00
2023-04-08T22:18:29.893Z,100.00
2023-04-08T22:20:56.473Z,100.00
2023-04-08T22:23:26.221Z,100.00
2023-04-08T22:25:52.963Z,100.00
2023-04-08T22:28:19.729Z,100.00
2023-04-08T22:30:46.877Z,100.00
2023-04-08T22:33:13.566Z,100.00
2023-04-08T22:35:40.665Z,100.00
2023-04-08T22:38:07.460Z,100.00
2023-04-08T22:40:37.290Z,100.00
2023-04-08T22:43:03.949Z,100.00
2023-04-08T22:45:30.602Z,100.00
2023-04-08T22:47:57.258Z,100.00
2023-04-08T22:50:24.196Z,100.00
2023-04-08T22:52:50.922Z,100.00
2023-04-08T22:55:17.534Z,100.00
2023-04-08T22:57:44.521Z,100.00
2023-04-08T23:00:14.943Z,100.00
2023-04-08T23:02:44.081Z,100.00
2023-04-08T23:05:13.448Z,100.00
2023-04-08T23:07:40.395Z,100.00
2023-04-08T23:10:07.726Z,100.00
2023-04-08T23:12:34.645Z,100.00
2023-04-08T23:15:01.872Z,100.00
2023-04-08T23:17:31.565Z,100.00
2023-04-08T23:19:58.177Z,100.00
2023-04-08T23:22:25.059Z,100.00
2023-04-08T23:24:51.996Z,100.00
2023-04-08T23:27:25.208Z,100.00
2023-04-08T23:29:51.807Z,100.00
2023-04-08T23:32:23.842Z,100.00
2023-04-08T23:34:50.649Z,100.00
2023-04-08T23:37:17.493Z,100.00
2023-04-08T23:39:44.119Z,100.00
2023-04-08T23:42:10.942Z,100.00
2023-04-08T23:44:37.636Z,100.00
2023-04-08T23:47:04.272Z,100.00
2023-04-08T23:49:30.910Z,100.00
2023-04-08T23:51:57.546Z,100.00
2023-04-08T23:54:24.325Z,100.00
2023-04-08T23:56:50.975Z,100.00
2023-04-08T23:59:17.609Z,100.00
